Time;durP1;ratioP1;P1;durP2;ratioP2;P2;SDS_P1;SDS_P2;PMS_P1;PMS_P2;Temp;Humidity;BMP_temperature;BMP_pressure;BME280_temperature;BME280_humidity;BME280_pressure;Samples;Min_cycle;Max_cycle;Signal;HPM_P1;HPM_P2
2022/07/26 00:02:04;;;;;;;;;;;;;;;;;;5000329;28;20433;-57
2022/07/26 00:04:30;;;;;;;;;;;;;;;;;;4997879;28;20229;-57
2022/07/26 00:06:56;;;;;;;;;;;;;;;;;;5005096;28;19913;-57
2022/07/26 00:09:22;;;;;;;;;;;;;;;;;;4994378;28;20298;-56
2022/07/26 00:11:48;;;;;;;;;;;;;;;;;;5003973;28;20416;-56
2022/07/26 00:14:14;;;;;;;;;;;;;;;;;;5003507;28;19921;-55
2022/07/26 00:16:40;;;;;;;;;;;;;;;;;;4997565;28;19971;-56
2022/07/26 00:19:08;;;;;;;;;;;;;;;;;;5007376;28;20435;-56
2022/07/26 00:21:35;;;;;;;;;;;;;;;;;;5006553;28;20325;-56
2022/07/26 00:24:01;;;;;;;;;;;;;;;;;;5004490;28;19909;-55
2022/07/26 00:26:27;;;;;;;;;;;;;;;;;;5001714;28;19913;-55
2022/07/26 00:28:53;;;;;;;;;;;;;;;;;;5005319;28;20345;-57
2022/07/26 00:31:19;;;;;;;;;;;;;;;;;;5006625;28;19913;-56
2022/07/26 00:33:45;;;;;;;;;;;;;;;;;;5006837;28;19913;-56
2022/07/26 00:36:11;;;;;;;;;;;;;;;;;;5007376;28;19917;-56
2022/07/26 00:38:37;;;;;;;;;;;;;;;;;;5006112;28;19909;-56
2022/07/26 00:41:03;;;;;;;;;;;;;;;;;;5006491;28;19910;-56
2022/07/26 00:43:29;;;;;;;;;;;;;;;;;;5005737;28;19933;-56
2022/07/26 00:45:54;;;;;;;;;;;;;;;;;;5006452;28;19913;-56
2022/07/26 00:48:20;;;;;;;;;;;;;;;;;;5006217;28;19913;-56
2022/07/26 00:50:47;;;;;;;;;;;;;;;;;;5005810;28;19917;-55
2022/07/26 00:53:14;;;;;;;;;;;;;;;;;;5006958;28;20302;-56
2022/07/26 00:55:40;;;;;;;;;;;;;;;;;;5006040;28;20457;-55
2022/07/26 00:58:06;;;;;;;;;;;;;;;;;;5006135;28;20008;-55
2022/07/26 01:00:32;;;;;;;;;;;;;;;;;;5005834;28;19914;-55
2022/07/26 01:02:59;;;;;;;;;;;;;;;;;;5005688;28;19917;-56
2022/07/26 01:05:26;;;;;;;;;;;;;;;;;;5006135;28;19939;-56
2022/07/26 01:07:52;;;;;;;;;;;;;;;;;;5006087;28;20337;-55
2022/07/26 01:10:18;;;;;;;;;;;;;;;;;;5005807;28;19917;-56
2022/07/26 01:12:43;;;;;;;;;;;;;;;;;;5005851;28;19913;-55
2022/07/26 01:15:09;;;;;;;;;;;;;;;;;;5005761;28;19960;-56
2022/07/26 01:17:35;;;;;;;;;;;;;;;;;;5005697;28;20452;-55
2022/07/26 01:20:01;;;;;;;;;;;;;;;;;;5005640;28;19910;-56
2022/07/26 01:22:28;;;;;;;;;;;;;;;;;;5005858;28;20000;-56
2022/07/26 01:24:54;;;;;;;;;;;;;;;;;;5005852;28;20405;-56
2022/07/26 01:27:20;;;;;;;;;;;;;;;;;;5006020;28;19913;-56
2022/07/26 01:29:46;;;;;;;;;;;;;;;;;;5005330;28;20012;-54
2022/07/26 01:32:13;;;;;;;;;;;;;;;;;;5004934;28;20409;-56
2022/07/26 01:34:40;;;;;;;;;;;;;;;;;;5005236;28;19971;-56
2022/07/26 01:37:06;;;;;;;;;;;;;;;;;;5005547;28;20270;-56
2022/07/26 01:39:32;;;;;;;;;;;;;;;;;;5005499;28;19913;-55
2022/07/26 01:41:58;;;;;;;;;;;;;;;;;;5005171;28;20016;-56
2022/07/26 01:44:25;;;;;;;;;;;;;;;;;;5005689;28;19909;-55
2022/07/26 01:46:50;;;;;;;;;;;;;;;;;;5005880;28;19914;-55
2022/07/26 01:49:16;;;;;;;;;;;;;;;;;;5005329;28;19917;-56
2022/07/26 01:51:42;;;;;;;;;;;;;;;;;;5005808;28;19909;-55
2022/07/26 01:54:08;;;;;;;;;;;;;;;;;;5005220;28;19917;-56
2022/07/26 01:56:34;;;;;;;;;;;;;;;;;;5005054;28;19913;-56
2022/07/26 01:59:00;;;;;;;;;;;;;;;;;;5005232;28;19920;-55
2022/07/26 02:01:26;;;;;;;;;;;;;;;;;;5004926;28;19914;-56
2022/07/26 02:03:52;;;;;;;;;;;;;;;;;;5005228;28;19910;-55
2022/07/26 02:06:18;;;;;;;;;;;;;;;;;;5005527;28;19959;-55
2022/07/26 02:08:44;;;;;;;;;;;;;;;;;;5005773;28;19916;-56
2022/07/26 02:11:10;;;;;;;;;;;;;;;;;;5006043;28;19913;-56
2022/07/26 02:13:35;;;;;;;;;;;;;;;;;;5008890;28;20310;-55
2022/07/26 02:16:01;;;;;;;;;;;;;;;;;;5009241;28;19906;-55
2022/07/26 02:18:27;;;;;;;;;;;;;;;;;;5008807;28;20408;-56
2022/07/26 02:20:54;;;;;;;;;;;;;;;;;;5009162;28;19905;-56
2022/07/26 02:23:20;;;;;;;;;;;;;;;;;;5008874;28;19914;-56
2022/07/26 02:25:46;;;;;;;;;;;;;;;;;;5008693;28;20404;-55
2022/07/26 02:28:12;;;;;;;;;;;;;;;;;;5009615;28;19925;-55
2022/07/26 02:30:39;;;;;;;;;;;;;;;;;;5008656;28;20333;-55
2022/07/26 02:33:06;;;;;;;;;;;;;;;;;;5008797;28;20509;-56
2022/07/26 02:35:32;;;;;;;;;;;;;;;;;;5008603;28;19910;-56
2022/07/26 02:37:58;;;;;;;;;;;;;;;;;;5008704;28;19967;-56
2022/07/26 02:40:24;;;;;;;;;;;;;;;;;;5008674;28;19920;-55
2022/07/26 02:42:50;;;;;;;;;;;;;;;;;;5008226;28;19913;-55
2022/07/26 02:45:15;;;;;;;;;;;;;;;;;;5009021;28;19988;-55
2022/07/26 02:47:41;;;;;;;;;;;;;;;;;;5008652;28;19910;-56
2022/07/26 02:50:08;;;;;;;;;;;;;;;;;;5008612;28;19923;-54
2022/07/26 02:52:33;;;;;;;;;;;;;;;;;;5008154;28;19949;-56
2022/07/26 02:54:59;;;;;;;;;;;;;;;;;;5008451;28;19956;-56
2022/07/26 02:57:25;;;;;;;;;;;;;;;;;;5008489;28;19914;-56
2022/07/26 02:59:51;;;;;;;;;;;;;;;;;;5008477;28;19913;-55
2022/07/26 03:02:18;;;;;;;;;;;;;;;;;;5007969;28;20468;-56
2022/07/26 03:04:44;;;;;;;;;;;;;;;;;;5008710;28;20114;-55
2022/07/26 03:07:10;;;;;;;;;;;;;;;;;;5008042;28;19952;-55
2022/07/26 03:09:36;;;;;;;;;;;;;;;;;;5007839;28;19918;-56
2022/07/26 03:12:02;;;;;;;;;;;;;;;;;;5008374;28;19909;-56
2022/07/26 03:14:27;;;;;;;;;;;;;;;;;;5007796;28;20063;-55
2022/07/26 03:16:53;;;;;;;;;;;;;;;;;;5006677;28;19910;-56
2022/07/26 03:19:19;;;;;;;;;;;;;;;;;;5008515;28;20249;-56
2022/07/26 03:21:46;;;;;;;;;;;;;;;;;;5007752;28;20335;-55
2022/07/26 03:24:12;;;;;;;;;;;;;;;;;;5008359;28;19971;-55
2022/07/26 03:26:38;;;;;;;;;;;;;;;;;;5007587;28;19917;-56
2022/07/26 03:29:04;;;;;;;;;;;;;;;;;;5007919;28;19917;-55
2022/07/26 03:31:30;;;;;;;;;;;;;;;;;;5007458;28;20020;-56
2022/07/26 03:33:55;;;;;;;;;;;;;;;;;;5007621;28;19913;-55
2022/07/26 03:36:22;;;;;;;;;;;;;;;;;;5007483;28;20409;-57
2022/07/26 03:38:48;;;;;;;;;;;;;;;;;;5007169;28;20239;-56
2022/07/26 03:41:14;;;;;;;;;;;;;;;;;;5008248;28;20004;-56
2022/07/26 03:43:40;;;;;;;;;;;;;;;;;;5007659;28;19915;-56
2022/07/26 03:46:06;;;;;;;;;;;;;;;;;;5007612;28;19920;-55
2022/07/26 03:48:32;;;;;;;;;;;;;;;;;;5007178;28;19916;-55
2022/07/26 03:50:59;;;;;;;;;;;;;;;;;;5007222;28;20012;-56
2022/07/26 03:53:24;;;;;;;;;;;;;;;;;;5007125;28;19910;-56
2022/07/26 03:58:35;;;;;;;;;;;;;;;;;;5006786;28;19936;-54
2022/07/26 04:01:01;;;;;;;;;;;;;;;;;;5007005;28;20433;-54
2022/07/26 04:03:27;;;;;;;;;;;;;;;;;;5006767;28;20391;-56
2022/07/26 04:05:53;;;;;;;;;;;;;;;;;;5006847;28;19917;-56
2022/07/26 04:08:20;;;;;;;;;;;;;;;;;;5006958;28;19906;-56
2022/07/26 04:10:46;;;;;;;;;;;;;;;;;;5006845;28;19993;-56
2022/07/26 04:13:12;;;;;;;;;;;;;;;;;;5007485;28;19914;-55
2022/07/26 04:15:37;;;;;;;;;;;;;;;;;;5006801;28;19920;-56
2022/07/26 04:18:03;;;;;;;;;;;;;;;;;;5006652;28;19916;-56
2022/07/26 04:20:29;;;;;;;;;;;;;;;;;;5006704;28;19910;-56
2022/07/26 04:22:56;;;;;;;;;;;;;;;;;;5006414;28;19949;-55
2022/07/26 04:25:22;;;;;;;;;;;;;;;;;;5006720;28;20005;-56
2022/07/26 04:27:48;;;;;;;;;;;;;;;;;;5006252;28;20012;-56
2022/07/26 04:30:14;;;;;;;;;;;;;;;;;;5007116;28;20345;-55
2022/07/26 04:32:40;;;;;;;;;;;;;;;;;;5005959;28;19921;-56
2022/07/26 04:35:06;;;;;;;;;;;;;;;;;;5005994;28;20350;-55
2022/07/26 04:37:33;;;;;;;;;;;;;;;;;;5006655;28;20012;-55
2022/07/26 04:39:59;;;;;;;;;;;;;;;;;;5006816;28;19910;-56
2022/07/26 04:42:25;;;;;;;;;;;;;;;;;;5006368;28;19944;-55
2022/07/26 04:44:51;;;;;;;;;;;;;;;;;;5006075;28;19913;-56
2022/07/26 04:47:17;;;;;;;;;;;;;;;;;;5006318;28;19914;-55
2022/07/26 04:49:43;;;;;;;;;;;;;;;;;;5006564;28;20513;-56
2022/07/26 04:52:10;;;;;;;;;;;;;;;;;;5006281;28;20275;-55
2022/07/26 04:54:36;;;;;;;;;;;;;;;;;;5006029;28;19914;-55
2022/07/26 04:57:02;;;;;;;;;;;;;;;;;;5006769;28;19913;-56
2022/07/26 04:59:29;;;;;;;;;;;;;;;;;;5005820;28;19931;-56
2022/07/26 05:01:55;;;;;;;;;;;;;;;;;;5005540;28;19914;-54
2022/07/26 05:04:21;;;;;;;;;;;;;;;;;;5006117;28;20373;-55
2022/07/26 05:06:47;;;;;;;;;;;;;;;;;;5006016;28;19913;-55
2022/07/26 05:09:12;;;;;;;;;;;;;;;;;;5006708;28;19964;-55
2022/07/26 05:11:39;;;;;;;;;;;;;;;;;;5005750;28;19973;-55
2022/07/26 05:14:05;;;;;;;;;;;;;;;;;;5006085;28;19921;-55
2022/07/26 05:16:31;;;;;;;;;;;;;;;;;;5005592;28;19914;-55
2022/07/26 05:18:57;;;;;;;;;;;;;;;;;;5005975;28;19924;-55
2022/07/26 05:21:23;;;;;;;;;;;;;;;;;;5006151;28;19910;-54
2022/07/26 05:23:49;;;;;;;;;;;;;;;;;;5005850;28;20286;-56
2022/07/26 05:26:16;;;;;;;;;;;;;;;;;;5006363;28;19916;-56
2022/07/26 05:28:43;;;;;;;;;;;;;;;;;;5006027;28;19921;-55
2022/07/26 05:31:09;;;;;;;;;;;;;;;;;;5005415;28;19913;-56
2022/07/26 05:33:36;;;;;;;;;;;;;;;;;;5005233;28;19910;-56
2022/07/26 05:36:02;;;;;;;;;;;;;;;;;;5005685;28;19917;-56
2022/07/26 05:38:27;;;;;;;;;;;;;;;;;;5005562;28;20312;-55
2022/07/26 05:40:53;;;;;;;;;;;;;;;;;;5005389;28;19906;-56
2022/07/26 05:43:19;;;;;;;;;;;;;;;;;;5005350;28;19929;-55
2022/07/26 05:45:45;;;;;;;;;;;;;;;;;;5004964;28;19912;-53
2022/07/26 05:48:11;;;;;;;;;;;;;;;;;;5006114;28;20318;-54
2022/07/26 05:50:37;;;;;;;;;;;;;;;;;;5005030;28;19917;-53
2022/07/26 05:53:03;;;;;;;;;;;;;;;;;;4994920;28;20195;-55
2022/07/26 05:55:29;;;;;;;;;;;;;;;;;;5004218;28;19913;-55
2022/07/26 05:57:55;;;;;;;;;;;;;;;;;;5001728;28;20256;-54
2022/07/26 06:00:20;;;;;;;;;;;;;;;;;;4997625;28;19909;-55
2022/07/26 06:02:47;;;;;;;;;;;;;;;;;;5006086;28;19914;-56
2022/07/26 06:05:14;;;;;;;;;;;;;;;;;;5005851;28;19913;-55
2022/07/26 06:07:40;;;;;;;;;;;;;;;;;;5006354;28;20283;-54
2022/07/26 06:10:06;;;;;;;;;;;;;;;;;;5001907;28;20044;-54
2022/07/26 06:12:32;;;;;;;;;;;;;;;;;;4986671;28;19936;-55
2022/07/26 06:14:58;;;;;;;;;;;;;;;;;;4986873;28;19913;-55
2022/07/26 06:17:28;;;;;;;;;;;;;;;;;;4988711;28;19956;-52
2022/07/26 06:19:54;;;;;;;;;;;;;;;;;;5004839;28;19913;-53
2022/07/26 06:22:20;;;;;;;;;;;;;;;;;;5004878;28;20398;-53
2022/07/26 06:24:46;;;;;;;;;;;;;;;;;;4998611;28;19956;-53
2022/07/26 06:27:12;;;;;;;;;;;;;;;;;;4987490;28;19976;-51
2022/07/26 06:29:39;;;;;;;;;;;;;;;;;;4991587;28;19929;-53
2022/07/26 06:32:05;;;;;;;;;;;;;;;;;;5006713;28;19909;-54
2022/07/26 06:34:31;;;;;;;;;;;;;;;;;;4999259;28;19913;-52
2022/07/26 06:36:57;;;;;;;;;;;;;;;;;;5002046;28;19917;-54
2022/07/26 06:39:22;;;;;;;;;;;;;;;;;;5006590;28;19917;-52
2022/07/26 06:41:48;;;;;;;;;;;;;;;;;;5005966;28;19951;-52
2022/07/26 06:44:14;;;;;;;;;;;;;;;;;;5007128;28;19910;-54
2022/07/26 06:46:40;;;;;;;;;;;;;;;;;;5020708;28;19912;-50
2022/07/26 06:49:06;;;;;;;;;;;;;;;;;;5017045;28;19914;-53
2022/07/26 06:51:32;;;;;;;;;;;;;;;;;;5006280;28;19913;-53
2022/07/26 06:53:58;;;;;;;;;;;;;;;;;;5007017;28;19921;-53
2022/07/26 06:56:24;;;;;;;;;;;;;;;;;;4997556;28;19962;-54
2022/07/26 06:58:50;;;;;;;;;;;;;;;;;;4989327;28;20013;-53
2022/07/26 07:01:16;;;;;;;;;;;;;;;;;;4990573;28;19910;-54
2022/07/26 07:03:42;;;;;;;;;;;;;;;;;;4993930;28;19920;-52
2022/07/26 07:06:09;;;;;;;;;;;;;;;;;;5009073;28;20064;-54
2022/07/26 07:08:36;;;;;;;;;;;;;;;;;;5008477;28;19917;-52
2022/07/26 07:11:01;;;;;;;;;;;;;;;;;;5010524;28;19917;-53
2022/07/26 07:13:27;;;;;;;;;;;;;;;;;;5010282;28;19916;-50
2022/07/26 07:15:53;;;;;;;;;;;;;;;;;;5010351;28;20381;-53
2022/07/26 07:18:19;;;;;;;;;;;;;;;;;;5010523;28;19909;-53
2022/07/26 07:20:45;;;;;;;;;;;;;;;;;;4996680;28;19909;-54
2022/07/26 07:23:11;;;;;;;;;;;;;;;;;;5007441;28;19914;-54
2022/07/26 07:25:37;;;;;;;;;;;;;;;;;;5008746;28;20512;-53
2022/07/26 07:28:03;;;;;;;;;;;;;;;;;;5009147;28;20410;-55
2022/07/26 07:30:30;;;;;;;;;;;;;;;;;;4989964;28;19918;-54
2022/07/26 07:32:56;;;;;;;;;;;;;;;;;;5003146;28;20402;-53
2022/07/26 07:35:22;;;;;;;;;;;;;;;;;;5006510;28;19968;-54
2022/07/26 07:37:47;;;;;;;;;;;;;;;;;;5008700;28;19924;-54
2022/07/26 07:40:13;;;;;;;;;;;;;;;;;;4996721;28;19924;-53
2022/07/26 07:42:39;;;;;;;;;;;;;;;;;;4988923;28;20358;-53
2022/07/26 07:45:05;;;;;;;;;;;;;;;;;;4989175;28;19914;-52
2022/07/26 07:47:31;;;;;;;;;;;;;;;;;;4998646;28;19913;-50
2022/07/26 07:49:58;;;;;;;;;;;;;;;;;;5004842;28;19921;-53
2022/07/26 07:52:24;;;;;;;;;;;;;;;;;;4988754;28;20334;-53
2022/07/26 07:54:51;;;;;;;;;;;;;;;;;;4988513;28;19916;-54
2022/07/26 07:57:18;;;;;;;;;;;;;;;;;;4989597;28;19956;-50
2022/07/26 07:59:45;;;;;;;;;;;;;;;;;;5007955;28;20036;-49
2022/07/26 08:02:13;;;;;;;;;;;;;;;;;;5009391;28;19909;-54
2022/07/26 08:04:40;;;;;;;;;;;;;;;;;;4998742;28;19910;-53
2022/07/26 08:07:06;;;;;;;;;;;;;;;;;;4988790;28;19944;-52
2022/07/26 08:09:33;;;;;;;;;;;;;;;;;;4986812;28;19921;-54
2022/07/26 08:12:00;;;;;;;;;;;;;;;;;;4988688;28;19921;-52
2022/07/26 08:14:26;;;;;;;;;;;;;;;;;;4998970;28;19917;-54
2022/07/26 08:16:52;;;;;;;;;;;;;;;;;;4988199;28;19914;-54
2022/07/26 08:19:18;;;;;;;;;;;;;;;;;;4988611;28;19918;-53
2022/07/26 08:21:44;;;;;;;;;;;;;;;;;;4988653;28;19936;-52
2022/07/26 08:24:11;;;;;;;;;;;;;;;;;;4988361;28;19914;-54
2022/07/26 08:26:38;;;;;;;;;;;;;;;;;;4998951;28;19913;-54
2022/07/26 08:29:04;;;;;;;;;;;;;;;;;;5007660;28;19925;-53
2022/07/26 08:31:30;;;;;;;;;;;;;;;;;;5007869;28;19915;-52
2022/07/26 08:33:56;;;;;;;;;;;;;;;;;;5007746;28;19910;-53
2022/07/26 08:36:22;;;;;;;;;;;;;;;;;;4988957;28;19914;-53
2022/07/26 08:38:48;;;;;;;;;;;;;;;;;;4987933;28;20418;-50
2022/07/26 08:41:14;;;;;;;;;;;;;;;;;;4987328;28;19910;-50
2022/07/26 08:43:41;;;;;;;;;;;;;;;;;;4993320;28;19916;-53
2022/07/26 08:46:07;;;;;;;;;;;;;;;;;;5000390;28;19922;-57
2022/07/26 08:48:33;;;;;;;;;;;;;;;;;;4989847;28;19917;-56
2022/07/26 08:50:59;;;;;;;;;;;;;;;;;;4988779;28;19946;-57
2022/07/26 08:53:25;;;;;;;;;;;;;;;;;;5007531;28;19909;-56
2022/07/26 08:55:53;;;;;;;;;;;;;;;;;;5007173;28;19920;-57
2022/07/26 08:58:20;;;;;;;;;;;;;;;;;;4998346;28;20288;-57
2022/07/26 09:00:47;;;;;;;;;;;;;;;;;;4987135;28;19917;-56
2022/07/26 09:03:13;;;;;;;;;;;;;;;;;;4988091;28;20387;-56
2022/07/26 09:05:40;;;;;;;;;;;;;;;;;;4987289;28;19918;-56
2022/07/26 09:08:06;;;;;;;;;;;;;;;;;;4987073;28;20362;-56
2022/07/26 09:10:32;;;;;;;;;;;;;;;;;;4986939;28;19921;-56
2022/07/26 09:12:58;;;;;;;;;;;;;;;;;;5001699;28;19917;-56
2022/07/26 09:15:24;;;;;;;;;;;;;;;;;;5006370;28;19914;-56
2022/07/26 09:17:50;;;;;;;;;;;;;;;;;;5006750;28;19909;-56
2022/07/26 09:20:16;;;;;;;;;;;;;;;;;;4996722;28;19940;-56
2022/07/26 09:22:43;;;;;;;;;;;;;;;;;;4987392;28;19925;-56
2022/07/26 09:25:09;;;;;;;;;;;;;;;;;;4988035;28;19910;-55
2022/07/26 09:27:35;;;;;;;;;;;;;;;;;;4986222;28;19921;-55
2022/07/26 09:30:01;;;;;;;;;;;;;;;;;;4986844;28;19957;-56
2022/07/26 09:32:27;;;;;;;;;;;;;;;;;;4986920;28;20000;-55
2022/07/26 09:34:55;;;;;;;;;;;;;;;;;;4987030;28;19921;-56
2022/07/26 09:37:21;;;;;;;;;;;;;;;;;;4987360;28;19996;-56
2022/07/26 09:39:47;;;;;;;;;;;;;;;;;;4986873;28;20427;-56
2022/07/26 09:42:13;;;;;;;;;;;;;;;;;;4987740;28;19914;-56
2022/07/26 09:44:41;;;;;;;;;;;;;;;;;;4989532;28;19923;-56
2022/07/26 09:47:07;;;;;;;;;;;;;;;;;;5006418;28;19913;-57
2022/07/26 09:49:33;;;;;;;;;;;;;;;;;;4989041;28;19925;-56
2022/07/26 09:51:59;;;;;;;;;;;;;;;;;;5006251;28;19925;-57
2022/07/26 09:54:25;;;;;;;;;;;;;;;;;;4999167;28;19921;-56
2022/07/26 09:56:51;;;;;;;;;;;;;;;;;;4986692;28;19914;-57
2022/07/26 09:59:18;;;;;;;;;;;;;;;;;;4987918;28;20326;-57
2022/07/26 10:01:45;;;;;;;;;;;;;;;;;;5002913;28;19917;-57
2022/07/26 10:04:10;;;;;;;;;;;;;;;;;;5013192;28;19956;-56
2022/07/26 10:06:36;;;;;;;;;;;;;;;;;;5021486;28;19913;-54
2022/07/26 10:09:02;;;;;;;;;;;;;;;;;;5026036;28;19909;-57
2022/07/26 10:11:28;;;;;;;;;;;;;;;;;;5020725;28;19948;-57
2022/07/26 10:13:56;;;;;;;;;;;;;;;;;;4988595;28;19921;-56
2022/07/26 10:16:22;;;;;;;;;;;;;;;;;;4986534;28;20276;-57
2022/07/26 10:18:49;;;;;;;;;;;;;;;;;;4985108;28;19984;-56
2022/07/26 10:21:14;;;;;;;;;;;;;;;;;;4999939;28;19981;-56
2022/07/26 10:23:40;;;;;;;;;;;;;;;;;;4986209;28;20341;-56
2022/07/26 10:26:06;;;;;;;;;;;;;;;;;;4987790;28;19925;-56
2022/07/26 10:28:32;;;;;;;;;;;;;;;;;;4985933;28;19918;-56
2022/07/26 10:30:58;;;;;;;;;;;;;;;;;;4987448;28;19928;-57
2022/07/26 10:33:24;;;;;;;;;;;;;;;;;;4988608;28;20419;-57
2022/07/26 10:35:50;;;;;;;;;;;;;;;;;;4990109;28;19910;-55
2022/07/26 10:38:16;;;;;;;;;;;;;;;;;;4990472;28;20009;-57
2022/07/26 10:40:43;;;;;;;;;;;;;;;;;;4990682;28;19909;-56
2022/07/26 10:43:09;;;;;;;;;;;;;;;;;;4989883;28;19914;-57
2022/07/26 10:45:35;;;;;;;;;;;;;;;;;;5005484;28;19937;-57
2022/07/26 10:48:02;;;;;;;;;;;;;;;;;;5002298;28;19913;-57
2022/07/26 10:50:28;;;;;;;;;;;;;;;;;;4990115;28;19918;-57
2022/07/26 10:52:54;;;;;;;;;;;;;;;;;;4996982;28;19924;-57
2022/07/26 10:55:20;;;;;;;;;;;;;;;;;;5008465;28;19913;-57
2022/07/26 10:57:46;;;;;;;;;;;;;;;;;;5008387;28;19913;-57
2022/07/26 11:00:12;;;;;;;;;;;;;;;;;;4994510;28;20410;-57
2022/07/26 11:02:38;;;;;;;;;;;;;;;;;;4988192;28;19913;-57
2022/07/26 11:05:04;;;;;;;;;;;;;;;;;;4988277;28;20295;-57
2022/07/26 11:07:30;;;;;;;;;;;;;;;;;;4988431;28;19921;-57
2022/07/26 11:09:56;;;;;;;;;;;;;;;;;;4988592;28;19914;-57
2022/07/26 11:12:21;;;;;;;;;;;;;;;;;;4988245;28;19933;-57
2022/07/26 11:14:47;;;;;;;;;;;;;;;;;;4988150;28;20398;-57
2022/07/26 11:17:13;;;;;;;;;;;;;;;;;;4989358;28;19972;-57
2022/07/26 11:19:39;;;;;;;;;;;;;;;;;;4988134;28;19922;-57
2022/07/26 11:22:06;;;;;;;;;;;;;;;;;;4988363;28;20009;-58
2022/07/26 11:24:32;;;;;;;;;;;;;;;;;;4987898;28;19944;-57
2022/07/26 11:26:58;;;;;;;;;;;;;;;;;;4988182;28;20001;-56
2022/07/26 11:29:24;;;;;;;;;;;;;;;;;;4988333;28;19940;-56
2022/07/26 11:31:50;;;;;;;;;;;;;;;;;;4987945;28;19917;-56
2022/07/26 11:34:15;;;;;;;;;;;;;;;;;;4988714;28;19913;-57
2022/07/26 11:36:41;;;;;;;;;;;;;;;;;;4988378;28;19913;-56
2022/07/26 11:39:07;;;;;;;;;;;;;;;;;;4988082;28;19914;-56
2022/07/26 11:41:34;;;;;;;;;;;;;;;;;;4987411;28;19910;-57
2022/07/26 11:44:00;;;;;;;;;;;;;;;;;;4987815;28;19914;-57
2022/07/26 11:46:26;;;;;;;;;;;;;;;;;;4988120;28;19916;-57
2022/07/26 11:48:52;;;;;;;;;;;;;;;;;;4987466;28;19909;-56
2022/07/26 11:51:18;;;;;;;;;;;;;;;;;;4987740;28;19967;-55
2022/07/26 11:53:44;;;;;;;;;;;;;;;;;;4989843;28;20044;-56
2022/07/26 11:56:10;;;;;;;;;;;;;;;;;;4995026;28;20406;-56
2022/07/26 11:58:36;;;;;;;;;;;;;;;;;;4998724;28;20720;-56
2022/07/26 12:01:02;;;;;;;;;;;;;;;;;;4995372;28;20371;-56
2022/07/26 12:03:28;;;;;;;;;;;;;;;;;;4988516;28;19920;-56
2022/07/26 12:05:54;;;;;;;;;;;;;;;;;;4988899;28;19913;-56
2022/07/26 12:08:20;;;;;;;;;;;;;;;;;;4989186;28;19921;-56
2022/07/26 12:10:46;;;;;;;;;;;;;;;;;;4989059;28;19944;-56
2022/07/26 12:13:12;;;;;;;;;;;;;;;;;;4989063;28;19961;-56
2022/07/26 12:15:38;;;;;;;;;;;;;;;;;;4998094;28;20015;-56
2022/07/26 12:18:04;;;;;;;;;;;;;;;;;;5008568;28;20000;-56
2022/07/26 12:20:30;;;;;;;;;;;;;;;;;;5008157;28;20206;-57
2022/07/26 12:22:57;;;;;;;;;;;;;;;;;;5005643;28;19967;-57
2022/07/26 12:25:23;;;;;;;;;;;;;;;;;;5006656;28;19932;-58
2022/07/26 12:27:48;;;;;;;;;;;;;;;;;;4996497;28;20395;-58
2022/07/26 12:30:16;;;;;;;;;;;;;;;;;;4998246;28;19944;-57
2022/07/26 12:32:42;;;;;;;;;;;;;;;;;;4991607;28;19992;-57
2022/07/26 12:35:07;;;;;;;;;;;;;;;;;;4998645;28;20017;-57
2022/07/26 12:37:33;;;;;;;;;;;;;;;;;;4996719;28;20107;-58
2022/07/26 12:39:59;;;;;;;;;;;;;;;;;;5000236;28;20393;-58
2022/07/26 12:42:25;;;;;;;;;;;;;;;;;;5004059;28;20337;-57
2022/07/26 12:44:51;;;;;;;;;;;;;;;;;;4992663;28;19914;-58
2022/07/26 12:47:17;;;;;;;;;;;;;;;;;;5004311;28;20000;-58
2022/07/26 12:49:45;;;;;;;;;;;;;;;;;;5004214;28;20350;-57
2022/07/26 12:52:11;;;;;;;;;;;;;;;;;;4988168;28;19960;-58
2022/07/26 12:54:38;;;;;;;;;;;;;;;;;;5003261;28;20363;-58
2022/07/26 12:57:04;;;;;;;;;;;;;;;;;;4995910;28;20024;-57
2022/07/26 12:59:29;;;;;;;;;;;;;;;;;;4990299;28;20008;-58
2022/07/26 13:01:55;;;;;;;;;;;;;;;;;;4987023;28;19918;-58
2022/07/26 13:04:21;;;;;;;;;;;;;;;;;;4984938;28;19988;-58
2022/07/26 13:06:47;;;;;;;;;;;;;;;;;;4989173;28;19922;-58
2022/07/26 13:09:13;;;;;;;;;;;;;;;;;;4999181;28;20346;-58
2022/07/26 13:11:39;;;;;;;;;;;;;;;;;;4987378;28;19948;-58
2022/07/26 13:14:06;;;;;;;;;;;;;;;;;;4986726;28;20387;-58
2022/07/26 13:16:32;;;;;;;;;;;;;;;;;;4985388;28;19913;-58
2022/07/26 13:18:59;;;;;;;;;;;;;;;;;;4986888;28;20417;-58
2022/07/26 13:21:24;;;;;;;;;;;;;;;;;;4987979;28;19953;-59
2022/07/26 13:23:50;;;;;;;;;;;;;;;;;;4985623;28;19976;-58
2022/07/26 13:26:17;;;;;;;;;;;;;;;;;;4984983;28;20020;-58
2022/07/26 13:28:43;;;;;;;;;;;;;;;;;;4985363;28;19921;-59
2022/07/26 13:31:11;;;;;;;;;;;;;;;;;;4985341;28;20390;-58
2022/07/26 13:33:38;;;;;;;;;;;;;;;;;;4985288;28;20079;-58
2022/07/26 13:36:04;;;;;;;;;;;;;;;;;;4991701;28;19913;-59
2022/07/26 13:38:32;;;;;;;;;;;;;;;;;;4984970;28;19924;-58
2022/07/26 13:40:59;;;;;;;;;;;;;;;;;;4985261;28;20398;-59
2022/07/26 13:43:26;;;;;;;;;;;;;;;;;;4985041;28;20045;-58
2022/07/26 13:45:53;;;;;;;;;;;;;;;;;;4986074;28;19917;-58
2022/07/26 13:48:18;;;;;;;;;;;;;;;;;;4985734;28;19910;-58
2022/07/26 13:50:44;;;;;;;;;;;;;;;;;;4984885;28;19920;-58
2022/07/26 13:53:10;;;;;;;;;;;;;;;;;;4984936;28;19910;-56
2022/07/26 13:55:36;;;;;;;;;;;;;;;;;;4984808;28;20402;-56
2022/07/26 13:58:02;;;;;;;;;;;;;;;;;;4985299;28;19910;-56
2022/07/26 14:00:28;;;;;;;;;;;;;;;;;;4984908;28;19918;-56
2022/07/26 14:02:54;;;;;;;;;;;;;;;;;;4997449;28;20429;-56
2022/07/26 14:05:20;;;;;;;;;;;;;;;;;;4996251;28;19964;-56
2022/07/26 14:07:46;;;;;;;;;;;;;;;;;;4995783;28;19917;-56
2022/07/26 14:10:11;;;;;;;;;;;;;;;;;;4989094;28;20421;-56
2022/07/26 14:12:39;;;;;;;;;;;;;;;;;;4989039;28;20005;-56
2022/07/26 14:15:07;;;;;;;;;;;;;;;;;;4988973;28;19949;-56
2022/07/26 14:17:33;;;;;;;;;;;;;;;;;;4988719;28;20284;-56
2022/07/26 14:19:59;;;;;;;;;;;;;;;;;;4999748;28;19924;-56
2022/07/26 14:22:25;;;;;;;;;;;;;;;;;;5008157;28;19917;-56
2022/07/26 14:24:51;;;;;;;;;;;;;;;;;;5000603;28;20418;-56
2022/07/26 14:27:17;;;;;;;;;;;;;;;;;;4995506;28;20340;-55
2022/07/26 14:29:45;;;;;;;;;;;;;;;;;;5003151;28;20008;-56
2022/07/26 14:32:10;;;;;;;;;;;;;;;;;;5000896;28;19917;-56
2022/07/26 14:34:36;;;;;;;;;;;;;;;;;;4996888;28;19925;-56
2022/07/26 14:37:03;;;;;;;;;;;;;;;;;;5008118;28;19921;-56
2022/07/26 14:39:29;;;;;;;;;;;;;;;;;;5008001;28;19912;-56
2022/07/26 14:41:55;;;;;;;;;;;;;;;;;;5006359;28;19909;-56
2022/07/26 14:44:21;;;;;;;;;;;;;;;;;;5008519;28;20417;-56
2022/07/26 14:46:47;;;;;;;;;;;;;;;;;;5007615;28;19932;-56
2022/07/26 14:49:13;;;;;;;;;;;;;;;;;;4999257;28;19940;-56
2022/07/26 14:51:39;;;;;;;;;;;;;;;;;;4988060;28;19972;-56
2022/07/26 14:54:05;;;;;;;;;;;;;;;;;;4987866;28;20004;-56
2022/07/26 14:56:32;;;;;;;;;;;;;;;;;;4987274;28;20067;-56
2022/07/26 14:58:58;;;;;;;;;;;;;;;;;;4993638;28;20295;-56
2022/07/26 15:01:23;;;;;;;;;;;;;;;;;;5006610;28;19924;-56
2022/07/26 15:03:49;;;;;;;;;;;;;;;;;;5000893;28;19924;-56
2022/07/26 15:06:15;;;;;;;;;;;;;;;;;;4989768;28;20418;-56
2022/07/26 15:08:41;;;;;;;;;;;;;;;;;;4988047;28;19989;-56
2022/07/26 15:11:07;;;;;;;;;;;;;;;;;;4986404;28;19925;-57
2022/07/26 15:13:33;;;;;;;;;;;;;;;;;;4987986;28;19917;-56
2022/07/26 15:16:00;;;;;;;;;;;;;;;;;;4987761;28;19917;-56
2022/07/26 15:18:27;;;;;;;;;;;;;;;;;;4990541;28;20794;-56
2022/07/26 15:20:53;;;;;;;;;;;;;;;;;;4996585;28;19921;-56
2022/07/26 15:23:18;;;;;;;;;;;;;;;;;;4988164;28;19945;-56
2022/07/26 15:25:47;;;;;;;;;;;;;;;;;;4987215;28;19917;-56
2022/07/26 15:28:13;;;;;;;;;;;;;;;;;;4987399;28;19956;-56
2022/07/26 15:30:40;;;;;;;;;;;;;;;;;;4987154;28;19917;-57
2022/07/26 15:33:06;;;;;;;;;;;;;;;;;;4986555;28;20459;-56
2022/07/26 15:35:35;;;;;;;;;;;;;;;;;;4987714;28;19957;-56
2022/07/26 15:38:01;;;;;;;;;;;;;;;;;;4990425;28;19945;-56
2022/07/26 15:40:27;;;;;;;;;;;;;;;;;;5006610;28;19917;-56
2022/07/26 15:42:53;;;;;;;;;;;;;;;;;;5000180;28;19918;-56
2022/07/26 15:45:19;;;;;;;;;;;;;;;;;;4990441;28;20461;-56
2022/07/26 15:47:45;;;;;;;;;;;;;;;;;;4995145;28;20008;-56
2022/07/26 15:50:11;;;;;;;;;;;;;;;;;;4997189;28;19924;-56
2022/07/26 15:52:37;;;;;;;;;;;;;;;;;;5005697;28;19921;-57
2022/07/26 15:55:04;;;;;;;;;;;;;;;;;;4996702;28;19987;-56
2022/07/26 15:57:30;;;;;;;;;;;;;;;;;;5006283;28;19917;-56
2022/07/26 15:59:56;;;;;;;;;;;;;;;;;;4991283;28;20431;-55
2022/07/26 16:02:22;;;;;;;;;;;;;;;;;;5008146;28;20390;-56
2022/07/26 16:04:48;;;;;;;;;;;;;;;;;;5008091;28;19960;-56
2022/07/26 16:07:14;;;;;;;;;;;;;;;;;;4999974;28;19914;-56
2022/07/26 16:09:40;;;;;;;;;;;;;;;;;;4988962;28;19922;-55
2022/07/26 16:12:06;;;;;;;;;;;;;;;;;;4989452;28;19910;-55
2022/07/26 16:14:32;;;;;;;;;;;;;;;;;;4990764;28;20016;-55
2022/07/26 16:16:58;;;;;;;;;;;;;;;;;;4997045;28;19922;-55
2022/07/26 16:19:24;;;;;;;;;;;;;;;;;;4989449;28;20041;-55
2022/07/26 16:21:50;;;;;;;;;;;;;;;;;;4989167;28;19922;-55
2022/07/26 16:24:16;;;;;;;;;;;;;;;;;;4989309;28;19910;-55
2022/07/26 16:26:42;;;;;;;;;;;;;;;;;;4993384;28;19917;-55
2022/07/26 16:29:08;;;;;;;;;;;;;;;;;;4988651;28;20013;-54
2022/07/26 16:31:34;;;;;;;;;;;;;;;;;;4993705;28;20019;-53
2022/07/26 16:34:00;;;;;;;;;;;;;;;;;;5007544;28;19921;-53
2022/07/26 16:36:26;;;;;;;;;;;;;;;;;;4996910;28;20504;-52
2022/07/26 16:38:52;;;;;;;;;;;;;;;;;;5008356;28;19953;-52
2022/07/26 16:41:18;;;;;;;;;;;;;;;;;;5003928;28;19967;-50